createdAt,value
2017-04-14T00:00:01.834Z,0
2017-04-14T00:01:09.927Z,0
2017-04-14T00:02:18.016Z,0
2017-04-14T00:03:26.108Z,0
2017-04-14T00:04:34.203Z,0
2017-04-14T00:05:42.287Z,0
2017-04-14T00:06:50.379Z,0
2017-04-14T00:07:58.461Z,0
2017-04-14T00:09:06.552Z,0
2017-04-14T00:10:14.640Z,0
2017-04-14T00:11:22.725Z,0
2017-04-14T00:12:30.820Z,0
2017-04-14T00:13:38.901Z,0
2017-04-14T00:14:46.993Z,0
2017-04-14T00:15:55.080Z,0
2017-04-14T00:17:03.165Z,0
2017-04-14T00:18:11.252Z,0
2017-04-14T00:19:19.341Z,0
2017-04-14T00:20:27.433Z,0
2017-04-14T00:21:35.529Z,0
2017-04-14T00:22:43.715Z,0
2017-04-14T00:23:51.701Z,0
2017-04-14T00:24:59.793Z,0
2017-04-14T00:26:07.881Z,0
2017-04-14T00:27:15.967Z,0
2017-04-14T00:28:24.057Z,0
2017-04-14T00:29:32.142Z,0
2017-04-14T00:30:40.230Z,0
2017-04-14T00:31:48.316Z,0
2017-04-14T00:32:56.411Z,0
2017-04-14T00:34:04.491Z,0
2017-04-14T00:35:12.579Z,0
2017-04-14T00:36:20.675Z,0
2017-04-14T00:37:28.769Z,0
2017-04-14T00:38:36.862Z,0
2017-04-14T00:39:44.943Z,0
2017-04-14T00:40:53.029Z,0
2017-04-14T00:42:01.123Z,0
2017-04-14T00:43:09.206Z,0
2017-04-14T00:44:17.294Z,0
2017-04-14T00:45:25.401Z,0
2017-04-14T00:46:33.492Z,0
2017-04-14T00:47:41.591Z,0
2017-04-14T00:48:49.663Z,0
2017-04-14T00:49:57.757Z,0
2017-04-14T00:51:05.848Z,0
2017-04-14T00:52:13.935Z,0
2017-04-14T00:53:22.042Z,0
2017-04-14T00:54:30.124Z,0
2017-04-14T00:55:38.207Z,0
2017-04-14T00:56:46.300Z,0
2017-04-14T00:57:54.390Z,0
2017-04-14T00:59:02.479Z,0
2017-04-14T01:00:10.569Z,0
2017-04-14T01:01:18.660Z,0
2017-04-14T01:02:26.749Z,0
2017-04-14T01:03:34.914Z,0
2017-04-14T01:04:42.923Z,0
2017-04-14T01:05:51.013Z,0
2017-04-14T01:06:59.095Z,0
2017-04-14T01:08:07.188Z,0
2017-04-14T01:09:15.281Z,0
2017-04-14T01:10:23.367Z,0
2017-04-14T01:11:31.494Z,0
2017-04-14T01:12:39.538Z,0
2017-04-14T01:13:47.630Z,0
2017-04-14T01:14:55.713Z,0
2017-04-14T01:16:03.862Z,0
2017-04-14T01:17:11.901Z,0
2017-04-14T01:18:19.988Z,0
2017-04-14T01:19:28.075Z,0
2017-04-14T01:20:36.162Z,0
2017-04-14T01:21:44.245Z,0
2017-04-14T01:22:52.331Z,0
2017-04-14T01:24:00.418Z,0
2017-04-14T01:25:08.513Z,0
2017-04-14T01:26:16.641Z,0
2017-04-14T01:27:24.689Z,0
2017-04-14T01:28:32.780Z,0
2017-04-14T01:29:40.867Z,0
2017-04-14T01:30:48.951Z,0
2017-04-14T01:31:57.052Z,0
2017-04-14T01:33:05.129Z,0
2017-04-14T01:34:13.215Z,0
2017-04-14T01:35:21.308Z,0
2017-04-14T01:36:29.398Z,0
2017-04-14T01:37:37.486Z,0
2017-04-14T01:38:45.570Z,0
2017-04-14T01:39:53.669Z,0
2017-04-14T01:41:01.752Z,0
2017-04-14T01:42:09.841Z,0
2017-04-14T01:43:17.925Z,0
2017-04-14T01:44:26.011Z,0
2017-04-14T01:45:34.100Z,0
2017-04-14T01:46:42.188Z,0
2017-04-14T01:47:50.279Z,0
2017-04-14T01:48:58.365Z,0
2017-04-14T01:50:06.446Z,0
2017-04-14T01:51:14.536Z,0
2017-04-14T01:52:22.624Z,0
2017-04-14T01:53:30.713Z,0
2017-04-14T01:54:38.796Z,0
2017-04-14T01:55:46.887Z,0
2017-04-14T01:56:54.975Z,0
2017-04-14T01:58:03.059Z,0
2017-04-14T01:59:11.148Z,0
2017-04-14T02:00:19.235Z,0
2017-04-14T02:01:27.317Z,0
2017-04-14T02:02:35.402Z,0
2017-04-14T02:03:43.492Z,0
2017-04-14T02:04:51.580Z,0
2017-04-14T02:05:59.662Z,0
2017-04-14T02:07:07.752Z,0
2017-04-14T02:08:15.846Z,0
2017-04-14T02:09:23.930Z,0
2017-04-14T02:10:32.021Z,0
2017-04-14T02:11:40.112Z,0
2017-04-14T02:12:48.197Z,0
2017-04-14T02:13:56.282Z,0
2017-04-14T02:15:04.379Z,0
2017-04-14T02:16:12.464Z,0
2017-04-14T02:17:20.561Z,0
2017-04-14T02:18:28.642Z,0
2017-04-14T02:19:36.738Z,0
2017-04-14T02:20:44.821Z,0
2017-04-14T02:21:52.909Z,0
2017-04-14T02:23:00.996Z,0
2017-04-14T02:24:09.082Z,0
2017-04-14T02:25:17.170Z,0
2017-04-14T02:26:25.273Z,0
2017-04-14T02:27:33.355Z,0
2017-04-14T02:28:41.450Z,0
2017-04-14T02:29:49.532Z,0
2017-04-14T02:30:57.623Z,0
2017-04-14T02:32:05.724Z,0
2017-04-14T02:33:13.801Z,0
2017-04-14T02:34:21.894Z,0
2017-04-14T02:35:29.979Z,0
2017-04-14T02:36:38.063Z,0
2017-04-14T02:37:46.149Z,0
2017-04-14T02:38:54.242Z,0
2017-04-14T02:40:02.326Z,0
2017-04-14T02:41:10.412Z,0
2017-04-14T02:42:18.501Z,0
2017-04-14T02:43:26.585Z,0
2017-04-14T02:44:34.675Z,0
2017-04-14T02:45:42.765Z,0
2017-04-14T02:46:50.855Z,0
2017-04-14T02:47:58.942Z,0
2017-04-14T02:49:07.023Z,0
2017-04-14T02:50:15.120Z,0
2017-04-14T02:51:23.212Z,0
2017-04-14T02:52:31.304Z,0
2017-04-14T02:53:39.388Z,0
2017-04-14T02:54:47.478Z,0
2017-04-14T02:55:55.569Z,0
2017-04-14T02:57:03.655Z,0
2017-04-14T02:58:11.752Z,0
2017-04-14T02:59:19.842Z,0
2017-04-14T03:00:27.924Z,0
2017-04-14T03:01:36.019Z,0
2017-04-14T03:02:44.098Z,0
2017-04-14T03:03:52.185Z,0
2017-04-14T03:05:00.271Z,0
2017-04-14T03:06:08.359Z,0
2017-04-14T03:07:16.447Z,0
2017-04-14T03:08:24.533Z,0
2017-04-14T03:09:32.621Z,0
2017-04-14T03:10:40.709Z,0
2017-04-14T03:11:48.800Z,0
2017-04-14T03:12:56.887Z,0
2017-04-14T03:14:04.987Z,0
2017-04-14T03:15:13.076Z,0
2017-04-14T03:16:21.160Z,0
2017-04-14T03:17:29.244Z,0
2017-04-14T03:18:37.338Z,0
2017-04-14T03:19:45.426Z,0
2017-04-14T03:20:53.509Z,0
2017-04-14T03:22:01.600Z,0
2017-04-14T03:23:09.695Z,0
2017-04-14T03:24:17.789Z,0
2017-04-14T03:25:25.875Z,0
2017-04-14T03:26:33.963Z,0
2017-04-14T03:27:42.049Z,0
2017-04-14T03:28:50.133Z,0
2017-04-14T03:29:58.224Z,0
2017-04-14T03:31:06.318Z,0
2017-04-14T03:32:14.403Z,0
2017-04-14T03:33:22.496Z,0
2017-04-14T03:34:30.582Z,0
2017-04-14T03:35:38.664Z,0
2017-04-14T03:36:46.748Z,0
2017-04-14T03:37:54.919Z,0
2017-04-14T03:39:02.924Z,0
2017-04-14T03:40:11.016Z,0
2017-04-14T03:41:19.096Z,0
2017-04-14T03:42:27.183Z,0
2017-04-14T03:43:35.273Z,0
2017-04-14T03:44:43.356Z,0
2017-04-14T03:45:51.448Z,0
2017-04-14T03:46:59.536Z,0
2017-04-14T03:48:07.618Z,0
2017-04-14T03:49:15.715Z,0
2017-04-14T03:50:23.807Z,0
2017-04-14T03:51:31.894Z,0
2017-04-14T03:52:39.980Z,0
2017-04-14T03:53:48.064Z,0
2017-04-14T03:54:56.192Z,0
2017-04-14T03:56:04.231Z,0
2017-04-14T03:57:12.322Z,0
2017-04-14T03:58:20.411Z,0
2017-04-14T03:59:28.495Z,0
2017-04-14T04:00:36.583Z,0
2017-04-14T04:01:44.684Z,0
2017-04-14T04:02:52.767Z,0
2017-04-14T04:04:00.851Z,0
2017-04-14T04:05:08.941Z,0
2017-04-14T04:06:17.028Z,0
2017-04-14T04:07:25.131Z,0
2017-04-14T04:08:33.208Z,0
2017-04-14T04:09:41.295Z,0
2017-04-14T04:10:49.378Z,0
2017-04-14T04:11:57.469Z,0
2017-04-14T04:13:05.563Z,0
2017-04-14T04:14:13.653Z,0
2017-04-14T04:15:21.742Z,0
2017-04-14T04:16:29.822Z,0
2017-04-14T04:17:37.911Z,0
2017-04-14T04:18:45.996Z,0
2017-04-14T04:19:54.085Z,0
2017-04-14T04:21:02.175Z,0
2017-04-14T04:22:10.264Z,0
2017-04-14T04:23:18.346Z,0
2017-04-14T04:24:26.429Z,0
2017-04-14T04:25:34.522Z,0
2017-04-14T04:26:42.604Z,0
2017-04-14T04:27:50.688Z,0
2017-04-14T04:28:58.776Z,0
2017-04-14T04:30:06.866Z,0
2017-04-14T04:31:14.950Z,0
2017-04-14T04:32:23.033Z,0
2017-04-14T04:33:31.131Z,0
2017-04-14T04:34:39.209Z,0
2017-04-14T04:35:47.297Z,0
2017-04-14T04:36:55.388Z,0
2017-04-14T04:38:03.474Z,0
2017-04-14T04:39:11.561Z,0
2017-04-14T04:40:19.645Z,0
2017-04-14T04:41:27.733Z,0
2017-04-14T04:42:35.823Z,0
2017-04-14T04:43:43.898Z,0
2017-04-14T04:44:51.989Z,0
2017-04-14T04:46:00.073Z,0
2017-04-14T04:47:08.166Z,0
2017-04-14T04:48:16.251Z,0
2017-04-14T04:49:24.336Z,0
2017-04-14T04:50:32.424Z,0
2017-04-14T04:51:40.506Z,0
2017-04-14T04:52:48.598Z,0
2017-04-14T04:53:56.686Z,0
2017-04-14T04:55:04.767Z,0
2017-04-14T04:56:12.855Z,0
2017-04-14T04:57:20.942Z,0
2017-04-14T04:58:29.029Z,0
2017-04-14T04:59:37.124Z,0
2017-04-14T05:00:45.214Z,4
2017-04-14T05:01:53.306Z,4
2017-04-14T05:03:01.378Z,4
2017-04-14T05:04:09.465Z,4
2017-04-14T05:05:17.561Z,4
2017-04-14T05:06:25.647Z,4
2017-04-14T05:07:33.731Z,0
2017-04-14T05:08:41.820Z,4
2017-04-14T05:09:49.906Z,0
2017-04-14T05:10:57.989Z,0
2017-04-14T05:12:06.078Z,0
2017-04-14T05:13:14.214Z,0
2017-04-14T05:14:22.250Z,0
2017-04-14T05:15:30.337Z,0
2017-04-14T05:16:38.426Z,0
2017-04-14T05:17:46.513Z,0
2017-04-14T05:18:54.592Z,4
2017-04-14T05:20:02.681Z,0
2017-04-14T05:21:10.777Z,4
2017-04-14T05:22:18.866Z,0
2017-04-14T05:23:26.953Z,4
2017-04-14T05:24:35.040Z,4
2017-04-14T05:25:43.127Z,4
2017-04-14T05:26:51.208Z,4
2017-04-14T05:27:59.298Z,4
2017-04-14T05:29:07.380Z,4
2017-04-14T05:30:15.467Z,4
2017-04-14T05:31:23.552Z,4
2017-04-14T05:32:31.640Z,4
2017-04-14T05:33:39.722Z,4
2017-04-14T05:34:47.854Z,8
2017-04-14T05:35:55.895Z,4
2017-04-14T05:37:03.984Z,4
2017-04-14T05:38:12.072Z,8
2017-04-14T05:39:20.158Z,4
2017-04-14T05:40:28.317Z,4
2017-04-14T05:41:36.344Z,4
2017-04-14T05:42:44.686Z,8
2017-04-14T05:43:52.653Z,4
2017-04-14T05:45:00.722Z,4
2017-04-14T05:46:08.682Z,8
2017-04-14T05:47:16.770Z,4
2017-04-14T05:48:24.862Z,8
2017-04-14T05:49:32.949Z,8
2017-04-14T05:50:41.028Z,8
2017-04-14T05:51:49.117Z,4
2017-04-14T05:52:57.202Z,8
2017-04-14T05:54:05.298Z,8
2017-04-14T05:55:13.374Z,8
2017-04-14T05:56:21.471Z,8
2017-04-14T05:57:29.563Z,4
2017-04-14T05:58:37.676Z,8
2017-04-14T05:59:45.733Z,4
2017-04-14T06:00:53.820Z,4
2017-04-14T06:02:01.980Z,8
2017-04-14T06:03:09.993Z,8
2017-04-14T06:04:18.082Z,4
2017-04-14T06:05:26.172Z,8
2017-04-14T06:06:34.270Z,8
2017-04-14T06:07:42.345Z,8
2017-04-14T06:08:50.430Z,12
2017-04-14T06:09:58.512Z,8
2017-04-14T06:11:06.604Z,8
2017-04-14T06:12:14.695Z,12
2017-04-14T06:13:23.274Z,12
2017-04-14T06:14:30.863Z,8
2017-04-14T06:15:38.950Z,8
2017-04-14T06:16:47.039Z,12
2017-04-14T06:17:55.127Z,8
2017-04-14T06:19:03.212Z,8
2017-04-14T06:20:11.297Z,8
2017-04-14T06:21:19.379Z,12
2017-04-14T06:22:27.685Z,12
2017-04-14T06:23:35.602Z,8
2017-04-14T06:24:43.648Z,8
2017-04-14T06:25:51.735Z,8
2017-04-14T06:26:59.819Z,12
2017-04-14T06:28:07.908Z,8
2017-04-14T06:29:16.028Z,8
2017-04-14T06:30:24.249Z,12
2017-04-14T06:31:32.161Z,8
2017-04-14T06:32:40.246Z,12
2017-04-14T06:33:48.328Z,8
2017-04-14T06:34:56.571Z,12
2017-04-14T06:36:04.661Z,12
2017-04-14T06:37:12.744Z,12
2017-04-14T06:38:20.857Z,12
2017-04-14T06:39:28.914Z,12
2017-04-14T06:40:37.073Z,12
2017-04-14T06:41:45.098Z,12
2017-04-14T06:42:53.178Z,12
2017-04-14T06:44:01.270Z,12
2017-04-14T06:45:09.351Z,12
2017-04-14T06:46:17.436Z,12
2017-04-14T06:47:25.521Z,12
2017-04-14T06:48:33.613Z,16
2017-04-14T06:49:41.543Z,16
2017-04-14T06:50:49.634Z,16
2017-04-14T06:51:57.718Z,16
2017-04-14T06:53:05.802Z,16
2017-04-14T06:54:13.888Z,16
2017-04-14T06:55:21.976Z,16
2017-04-14T06:56:30.063Z,12
2017-04-14T06:57:38.179Z,12
2017-04-14T06:58:46.241Z,16
2017-04-14T06:59:54.327Z,16
2017-04-14T07:01:02.408Z,12
2017-04-14T07:02:10.500Z,12
2017-04-14T07:03:18.583Z,12
2017-04-14T07:04:26.670Z,16
2017-04-14T07:05:34.749Z,16
2017-04-14T07:06:42.842Z,12
2017-04-14T07:07:51.232Z,16
2017-04-14T07:08:59.091Z,16
2017-04-14T07:10:07.190Z,16
2017-04-14T07:11:15.276Z,12
2017-04-14T07:12:23.378Z,12
2017-04-14T07:13:31.431Z,12
2017-04-14T07:14:39.533Z,12
2017-04-14T07:15:47.619Z,16
2017-04-14T07:16:55.674Z,16
2017-04-14T07:18:03.775Z,12
2017-04-14T07:19:11.864Z,12
2017-04-14T07:20:19.881Z,12
2017-04-14T07:21:28.037Z,16
2017-04-14T07:22:36.138Z,12
2017-04-14T07:23:44.234Z,16
2017-04-14T07:24:52.288Z,16
2017-04-14T07:26:00.399Z,16
2017-04-14T07:27:08.506Z,12
2017-04-14T07:28:16.596Z,16
2017-04-14T07:29:24.659Z,16
2017-04-14T07:30:32.851Z,16
2017-04-14T07:31:41.243Z,20
2017-04-14T07:32:48.907Z,16
2017-04-14T07:33:56.908Z,20
2017-04-14T07:35:04.999Z,20
2017-04-14T07:36:13.081Z,20
2017-04-14T07:37:21.174Z,20
2017-04-14T07:38:29.267Z,24
2017-04-14T07:39:37.343Z,24
2017-04-14T07:40:45.426Z,24
2017-04-14T07:41:53.513Z,24
2017-04-14T07:43:01.600Z,24
2017-04-14T07:44:09.685Z,28
2017-04-14T07:45:17.769Z,28
2017-04-14T07:46:25.862Z,28
2017-04-14T07:47:33.950Z,32
2017-04-14T07:48:42.032Z,28
2017-04-14T07:49:50.122Z,32
2017-04-14T07:50:58.214Z,28
2017-04-14T07:52:06.334Z,28
2017-04-14T07:53:14.383Z,28
2017-04-14T07:54:22.482Z,32
2017-04-14T07:55:30.557Z,32
2017-04-14T07:56:38.635Z,32
2017-04-14T07:57:46.721Z,32
2017-04-14T07:58:54.815Z,32
2017-04-14T08:00:03.009Z,32
2017-04-14T08:01:10.978Z,32
2017-04-14T08:02:19.066Z,28
2017-04-14T08:03:27.146Z,32
2017-04-14T08:04:35.228Z,28
2017-04-14T08:05:43.328Z,32
2017-04-14T08:06:51.411Z,32
2017-04-14T08:07:59.492Z,32
2017-04-14T08:09:07.583Z,36
2017-04-14T08:10:15.666Z,36
2017-04-14T08:11:23.747Z,36
2017-04-14T08:12:31.832Z,36
2017-04-14T08:13:39.920Z,36
2017-04-14T08:14:48.010Z,40
2017-04-14T08:15:56.099Z,36
2017-04-14T08:17:04.188Z,36
2017-04-14T08:18:12.270Z,40
2017-04-14T08:19:20.354Z,36
2017-04-14T08:20:28.437Z,40
2017-04-14T08:21:36.631Z,36
2017-04-14T08:22:44.611Z,40
2017-04-14T08:23:52.700Z,44
2017-04-14T08:25:00.791Z,40
2017-04-14T08:26:08.877Z,44
2017-04-14T08:27:16.965Z,44
2017-04-14T08:28:25.049Z,44
2017-04-14T08:29:33.142Z,44
2017-04-14T08:30:41.231Z,44
2017-04-14T08:31:49.310Z,44
2017-04-14T08:32:57.400Z,44
2017-04-14T08:34:05.482Z,44
2017-04-14T08:35:13.567Z,40
2017-04-14T08:36:21.655Z,40
2017-04-14T08:37:29.752Z,40
2017-04-14T08:38:37.827Z,40
2017-04-14T08:39:45.910Z,40
2017-04-14T08:40:54.000Z,40
2017-04-14T08:42:02.086Z,40
2017-04-14T08:43:10.182Z,44
2017-04-14T08:44:18.253Z,44
2017-04-14T08:45:26.344Z,44
2017-04-14T08:46:34.427Z,44
2017-04-14T08:47:42.518Z,44
2017-04-14T08:48:50.606Z,40
2017-04-14T08:49:58.692Z,36
2017-04-14T08:51:06.777Z,36
2017-04-14T08:52:14.883Z,36
2017-04-14T08:53:22.948Z,36
2017-04-14T08:54:31.032Z,36
2017-04-14T08:55:39.112Z,44
2017-04-14T08:56:47.200Z,36
2017-04-14T08:57:55.289Z,40
2017-04-14T08:59:03.366Z,40
2017-04-14T09:00:11.456Z,40
2017-04-14T09:01:19.550Z,56
2017-04-14T09:02:27.635Z,52
2017-04-14T09:03:35.715Z,56
2017-04-14T09:04:43.813Z,44
2017-04-14T09:05:51.897Z,44
2017-04-14T09:06:59.989Z,64
2017-04-14T09:08:08.072Z,48
2017-04-14T09:09:16.170Z,48
2017-04-14T09:10:24.249Z,48
2017-04-14T09:11:32.336Z,44
2017-04-14T09:12:40.423Z,44
2017-04-14T09:13:48.507Z,44
2017-04-14T09:14:56.588Z,44
2017-04-14T09:16:04.675Z,44
2017-04-14T09:17:12.767Z,36
2017-04-14T09:18:20.858Z,40
2017-04-14T09:19:28.937Z,48
2017-04-14T09:20:37.024Z,44
2017-04-14T09:21:45.114Z,44
2017-04-14T09:22:53.196Z,44
2017-04-14T09:24:01.280Z,80
2017-04-14T09:25:09.370Z,60
2017-04-14T09:26:17.466Z,60
2017-04-14T09:27:25.533Z,76
2017-04-14T09:28:33.621Z,44
2017-04-14T09:29:41.705Z,40
2017-04-14T09:30:49.787Z,36
2017-04-14T09:31:57.875Z,36
2017-04-14T09:33:05.959Z,36
2017-04-14T09:34:14.042Z,40
2017-04-14T09:35:22.126Z,40
2017-04-14T09:36:30.212Z,44
2017-04-14T09:37:38.297Z,48
2017-04-14T09:38:46.384Z,40
2017-04-14T09:39:54.469Z,44
2017-04-14T09:41:02.554Z,44
2017-04-14T09:42:10.642Z,44
2017-04-14T09:43:18.824Z,40
2017-04-14T09:44:26.810Z,40
2017-04-14T09:45:34.895Z,40
2017-04-14T09:46:42.975Z,36
2017-04-14T09:47:51.064Z,40
2017-04-14T09:48:59.149Z,36
2017-04-14T09:50:07.229Z,40
2017-04-14T09:51:15.313Z,40
2017-04-14T09:52:23.407Z,44
2017-04-14T09:53:31.490Z,44
2017-04-14T09:54:39.574Z,44
2017-04-14T09:55:47.669Z,44
2017-04-14T09:56:55.753Z,44
2017-04-14T09:58:03.843Z,40
2017-04-14T09:59:11.928Z,40
2017-04-14T10:00:20.016Z,44
2017-04-14T10:01:28.101Z,44
2017-04-14T10:02:36.190Z,44
2017-04-14T10:03:44.278Z,44
2017-04-14T10:04:52.362Z,44
2017-04-14T10:06:00.447Z,44
2017-04-14T10:07:08.532Z,44
2017-04-14T10:08:16.619Z,44
2017-04-14T10:09:24.703Z,44
2017-04-14T10:10:32.789Z,44
2017-04-14T10:11:40.876Z,44
2017-04-14T10:12:48.962Z,40
2017-04-14T10:13:57.040Z,40
2017-04-14T10:15:05.128Z,44
2017-04-14T10:16:13.213Z,44
2017-04-14T10:17:21.297Z,40
2017-04-14T10:18:29.381Z,40
2017-04-14T10:19:37.472Z,44
2017-04-14T10:20:45.557Z,44
2017-04-14T10:21:53.640Z,40
2017-04-14T10:23:01.749Z,44
2017-04-14T10:24:09.813Z,40
2017-04-14T10:25:17.893Z,40
2017-04-14T10:26:25.976Z,44
2017-04-14T10:27:34.063Z,44
2017-04-14T10:28:42.149Z,44
2017-04-14T10:29:50.243Z,44
2017-04-14T10:30:58.322Z,44
2017-04-14T10:32:06.405Z,44
2017-04-14T10:33:14.486Z,48
2017-04-14T10:34:22.578Z,48
2017-04-14T10:35:30.668Z,44
2017-04-14T10:36:38.753Z,44
2017-04-14T10:37:46.847Z,44
2017-04-14T10:38:54.940Z,44
2017-04-14T10:40:03.033Z,44
2017-04-14T10:41:11.111Z,44
2017-04-14T10:42:19.194Z,44
2017-04-14T10:43:27.315Z,44
2017-04-14T10:44:35.458Z,44
2017-04-14T10:45:43.457Z,44
2017-04-14T10:46:51.549Z,48
2017-04-14T10:47:59.630Z,48
2017-04-14T10:49:07.722Z,48
2017-04-14T10:50:15.813Z,48
2017-04-14T10:51:23.912Z,48
2017-04-14T10:52:31.991Z,48
2017-04-14T10:53:40.084Z,48
2017-04-14T10:54:48.166Z,52
2017-04-14T10:55:56.255Z,52
2017-04-14T10:57:04.337Z,48
2017-04-14T10:58:12.426Z,52
2017-04-14T10:59:20.516Z,48
2017-04-14T11:00:28.598Z,52
2017-04-14T11:01:37.313Z,48
2017-04-14T11:02:44.797Z,48
2017-04-14T11:03:52.886Z,48
2017-04-14T11:05:01.348Z,48
2017-04-14T11:06:09.532Z,48
2017-04-14T11:07:17.418Z,44
2017-04-14T11:08:25.228Z,48
2017-04-14T11:09:33.307Z,44
2017-04-14T11:10:41.438Z,44
2017-04-14T11:11:49.484Z,44
2017-04-14T11:12:57.564Z,44
2017-04-14T11:14:05.655Z,48
2017-04-14T11:15:13.740Z,44
2017-04-14T11:16:22.200Z,44
2017-04-14T11:17:29.919Z,40
2017-04-14T11:18:38.005Z,40
2017-04-14T11:19:46.279Z,44
2017-04-14T11:20:54.169Z,40
2017-04-14T11:22:02.256Z,40
2017-04-14T11:23:10.343Z,48
2017-04-14T11:24:18.423Z,48
2017-04-14T11:25:26.513Z,48
2017-04-14T11:26:34.595Z,48
2017-04-14T11:27:42.681Z,44
2017-04-14T11:28:50.946Z,52
2017-04-14T11:29:58.849Z,44
2017-04-14T11:31:06.932Z,44
2017-04-14T11:32:15.017Z,44
2017-04-14T11:33:23.099Z,44
2017-04-14T11:34:31.329Z,64
2017-04-14T11:35:39.662Z,60
2017-04-14T11:36:47.350Z,52
2017-04-14T11:37:55.438Z,68
2017-04-14T11:39:03.522Z,44
2017-04-14T11:40:11.608Z,44
2017-04-14T11:41:19.690Z,44
2017-04-14T11:42:27.778Z,72
2017-04-14T11:43:35.868Z,56
2017-04-14T11:44:43.945Z,44
2017-04-14T11:45:52.031Z,64
2017-04-14T11:47:00.116Z,48
2017-04-14T11:48:08.197Z,44
2017-04-14T11:49:16.282Z,40
2017-04-14T11:50:24.371Z,44
2017-04-14T11:51:32.454Z,40
2017-04-14T11:52:40.879Z,44
2017-04-14T11:53:48.632Z,40
2017-04-14T11:54:56.711Z,48
2017-04-14T11:56:04.790Z,44
2017-04-14T11:57:12.873Z,36
2017-04-14T11:58:20.962Z,60
2017-04-14T11:59:29.043Z,52
2017-04-14T12:00:37.127Z,56
2017-04-14T12:01:45.218Z,48
2017-04-14T12:02:53.303Z,40
2017-04-14T12:04:01.386Z,60
2017-04-14T12:05:09.471Z,60
2017-04-14T12:06:17.558Z,56
2017-04-14T12:07:25.638Z,60
2017-04-14T12:08:33.720Z,56
2017-04-14T12:09:41.806Z,28
2017-04-14T12:10:49.897Z,32
2017-04-14T12:11:57.978Z,36
2017-04-14T12:13:06.069Z,60
2017-04-14T12:14:14.157Z,60
2017-04-14T12:15:22.242Z,52
2017-04-14T12:16:30.316Z,52
2017-04-14T12:17:38.412Z,60
2017-04-14T12:18:46.503Z,32
2017-04-14T12:19:54.581Z,60
2017-04-14T12:21:02.676Z,60
2017-04-14T12:22:10.758Z,64
2017-04-14T12:23:18.839Z,52
2017-04-14T12:24:26.923Z,56
2017-04-14T12:25:35.016Z,64
2017-04-14T12:26:43.093Z,64
2017-04-14T12:27:51.178Z,64
2017-04-14T12:28:59.301Z,64
2017-04-14T12:30:07.349Z,40
2017-04-14T12:31:15.439Z,36
2017-04-14T12:32:23.514Z,52
2017-04-14T12:33:31.610Z,56
2017-04-14T12:34:39.690Z,44
2017-04-14T12:35:47.772Z,64
2017-04-14T12:36:55.860Z,40
2017-04-14T12:38:03.950Z,36
2017-04-14T12:39:12.037Z,32
2017-04-14T12:40:20.116Z,36
2017-04-14T12:41:28.213Z,44
2017-04-14T12:42:36.295Z,40
2017-04-14T12:43:44.375Z,36
2017-04-14T12:44:52.462Z,40
2017-04-14T12:46:00.573Z,40
2017-04-14T12:47:08.633Z,40
2017-04-14T12:48:16.719Z,40
2017-04-14T12:49:24.805Z,40
2017-04-14T12:50:33.544Z,36
2017-04-14T12:51:40.974Z,40
2017-04-14T12:52:49.071Z,36
2017-04-14T12:53:57.165Z,36
2017-04-14T12:55:05.248Z,36
2017-04-14T12:56:13.329Z,40
2017-04-14T12:57:21.422Z,40
2017-04-14T12:58:29.504Z,40
2017-04-14T12:59:37.590Z,36
2017-04-14T13:00:45.691Z,36
2017-04-14T13:01:53.774Z,36
2017-04-14T13:03:01.860Z,40
2017-04-14T13:04:09.942Z,40
2017-04-14T13:05:18.036Z,44
2017-04-14T13:06:26.119Z,60
2017-04-14T13:07:34.201Z,56
2017-04-14T13:08:42.291Z,44
2017-04-14T13:09:50.375Z,44
2017-04-14T13:10:58.454Z,52
2017-04-14T13:12:06.542Z,44
2017-04-14T13:13:14.627Z,56
2017-04-14T13:14:22.711Z,40
2017-04-14T13:15:30.790Z,40
2017-04-14T13:16:38.879Z,40
2017-04-14T13:17:46.967Z,44
2017-04-14T13:18:55.054Z,48
2017-04-14T13:20:03.132Z,40
2017-04-14T13:21:11.225Z,36
2017-04-14T13:22:19.313Z,36
2017-04-14T13:23:27.396Z,32
2017-04-14T13:24:35.490Z,32
2017-04-14T13:25:43.585Z,32
2017-04-14T13:26:51.659Z,40
2017-04-14T13:27:59.755Z,36
2017-04-14T13:29:07.837Z,40
2017-04-14T13:30:15.922Z,40
2017-04-14T13:31:24.014Z,36
2017-04-14T13:32:32.096Z,36
2017-04-14T13:33:40.181Z,32
2017-04-14T13:34:48.265Z,28
2017-04-14T13:35:56.350Z,28
2017-04-14T13:37:04.434Z,28
2017-04-14T13:38:12.521Z,28
2017-04-14T13:39:20.599Z,32
2017-04-14T13:40:28.693Z,28
2017-04-14T13:41:36.781Z,32
2017-04-14T13:42:44.870Z,32
2017-04-14T13:43:52.955Z,36
2017-04-14T13:45:01.263Z,36
2017-04-14T13:46:09.118Z,36
2017-04-14T13:47:17.203Z,44
2017-04-14T13:48:25.288Z,56
2017-04-14T13:49:33.379Z,44
2017-04-14T13:50:41.458Z,36
2017-04-14T13:51:49.549Z,36
2017-04-14T13:52:57.634Z,44
2017-04-14T13:54:05.724Z,36
2017-04-14T13:55:13.802Z,36
2017-04-14T13:56:21.895Z,36
2017-04-14T13:57:29.974Z,40
2017-04-14T13:58:38.056Z,36
2017-04-14T13:59:46.145Z,36
2017-04-14T14:00:54.246Z,28
2017-04-14T14:02:02.316Z,32
2017-04-14T14:03:10.402Z,32
2017-04-14T14:04:18.490Z,32
2017-04-14T14:05:26.576Z,36
2017-04-14T14:06:34.659Z,32
2017-04-14T14:07:42.746Z,32
2017-04-14T14:08:50.834Z,32
2017-04-14T14:09:58.918Z,32
2017-04-14T14:11:06.998Z,32
2017-04-14T14:12:15.086Z,32
2017-04-14T14:13:23.170Z,36
2017-04-14T14:14:31.248Z,28
2017-04-14T14:15:39.339Z,32
2017-04-14T14:16:47.422Z,36
2017-04-14T14:17:55.511Z,32
2017-04-14T14:19:03.587Z,32
2017-04-14T14:20:11.683Z,28
2017-04-14T14:21:19.768Z,32
2017-04-14T14:22:27.848Z,32
2017-04-14T14:23:35.941Z,32
2017-04-14T14:24:44.029Z,32
2017-04-14T14:25:52.108Z,28
2017-04-14T14:27:00.196Z,36
2017-04-14T14:28:08.283Z,32
2017-04-14T14:29:16.368Z,32
2017-04-14T14:30:24.447Z,32
2017-04-14T14:31:32.572Z,32
2017-04-14T14:32:40.630Z,28
2017-04-14T14:33:48.711Z,32
2017-04-14T14:34:56.801Z,32
2017-04-14T14:36:04.888Z,28
2017-04-14T14:37:12.970Z,32
2017-04-14T14:38:21.067Z,28
2017-04-14T14:39:29.157Z,32
2017-04-14T14:40:37.239Z,28
2017-04-14T14:41:45.324Z,28
2017-04-14T14:42:53.415Z,28
2017-04-14T14:44:01.494Z,28
2017-04-14T14:45:09.617Z,28
2017-04-14T14:46:17.656Z,32
2017-04-14T14:47:25.747Z,28
2017-04-14T14:48:33.828Z,32
2017-04-14T14:49:41.949Z,28
2017-04-14T14:50:50.002Z,28
2017-04-14T14:51:58.086Z,28
2017-04-14T14:53:06.182Z,28
2017-04-14T14:54:14.254Z,28
2017-04-14T14:55:22.345Z,24
2017-04-14T14:56:30.425Z,24
2017-04-14T14:57:38.507Z,24
2017-04-14T14:58:46.595Z,24
2017-04-14T14:59:54.682Z,24
2017-04-14T15:01:02.763Z,24
2017-04-14T15:02:10.863Z,24
2017-04-14T15:03:18.938Z,24
2017-04-14T15:04:27.022Z,24
2017-04-14T15:05:35.106Z,24
2017-04-14T15:06:43.196Z,20
2017-04-14T15:07:51.283Z,24
2017-04-14T15:08:59.366Z,24
2017-04-14T15:10:07.452Z,28
2017-04-14T15:11:15.537Z,28
2017-04-14T15:12:23.622Z,28
2017-04-14T15:13:31.709Z,24
2017-04-14T15:14:39.798Z,24
2017-04-14T15:15:47.878Z,24
2017-04-14T15:16:55.964Z,24
2017-04-14T15:18:04.042Z,28
2017-04-14T15:19:12.137Z,24
2017-04-14T15:20:20.219Z,24
2017-04-14T15:21:28.303Z,24
2017-04-14T15:22:36.392Z,24
2017-04-14T15:23:44.475Z,20
2017-04-14T15:24:52.554Z,24
2017-04-14T15:26:00.646Z,24
2017-04-14T15:27:08.740Z,20
2017-04-14T15:28:16.833Z,24
2017-04-14T15:29:24.919Z,20
2017-04-14T15:30:33.000Z,20
2017-04-14T15:31:41.083Z,20
2017-04-14T15:32:49.168Z,20
2017-04-14T15:33:57.255Z,20
2017-04-14T15:35:05.339Z,24
2017-04-14T15:36:13.420Z,24
2017-04-14T15:37:21.502Z,24
2017-04-14T15:38:29.591Z,20
2017-04-14T15:39:37.685Z,20
2017-04-14T15:40:45.770Z,20
2017-04-14T15:41:53.851Z,20
2017-04-14T15:43:01.938Z,24
2017-04-14T15:44:10.026Z,16
2017-04-14T15:45:18.108Z,16
2017-04-14T15:46:26.191Z,20
2017-04-14T15:47:34.285Z,20
2017-04-14T15:48:42.385Z,16
2017-04-14T15:49:50.465Z,20
2017-04-14T15:50:58.553Z,20
2017-04-14T15:52:06.640Z,20
2017-04-14T15:53:14.714Z,20
2017-04-14T15:54:22.804Z,20
2017-04-14T15:55:30.886Z,20
2017-04-14T15:56:38.967Z,20
2017-04-14T15:57:47.055Z,16
2017-04-14T15:58:55.142Z,16
2017-04-14T16:00:03.223Z,20
2017-04-14T16:01:11.313Z,20
2017-04-14T16:02:19.396Z,20
2017-04-14T16:03:27.481Z,20
2017-04-14T16:04:35.563Z,20
2017-04-14T16:05:43.723Z,16
2017-04-14T16:06:51.736Z,20
2017-04-14T16:07:59.829Z,16
2017-04-14T16:09:07.911Z,20
2017-04-14T16:10:16.002Z,20
2017-04-14T16:11:24.085Z,16
2017-04-14T16:12:32.177Z,16
2017-04-14T16:13:40.270Z,16
2017-04-14T16:14:48.355Z,16
2017-04-14T16:15:56.443Z,16
2017-04-14T16:17:04.521Z,20
2017-04-14T16:18:12.613Z,20
2017-04-14T16:19:20.702Z,20
2017-04-14T16:20:28.776Z,20
2017-04-14T16:21:36.873Z,16
2017-04-14T16:22:44.956Z,12
2017-04-14T16:23:53.046Z,12